Time;durP1;ratioP1;P1;durP2;ratioP2;P2;SDS_P1;SDS_P2;PMS_P1;PMS_P2;Temp;Humidity;BMP_temperature;BMP_pressure;BME280_temperature;BME280_humidity;BME280_pressure;Samples;Min_cycle;Max_cycle;Signal;HPM_P1;HPM_P2
2023/01/26 00:01:44;;;;;;;22.15;18.75;;;20.70;28.20;;;;;;4990540;28;20042;-49
2023/01/26 00:04:10;;;;;;;25.13;19.55;;;20.70;28.20;;;;;;4989584;28;20062;-47
2023/01/26 00:06:37;;;;;;;21.58;18.55;;;20.70;28.20;;;;;;4991737;28;20375;-52
2023/01/26 00:09:03;;;;;;;20.88;17.77;;;20.60;28.20;;;;;;4990120;28;20027;-50
2023/01/26 00:11:29;;;;;;;21.83;17.92;;;20.60;28.20;;;;;;4987894;28;20046;-49
2023/01/26 00:13:57;;;;;;;20.83;18.15;;;20.60;28.30;;;;;;4984516;28;20370;-50
2023/01/26 00:16:23;;;;;;;19.48;17.33;;;20.60;28.20;;;;;;4989565;28;20026;-51
2023/01/26 00:18:49;;;;;;;21.80;18.77;;;20.60;28.20;;;;;;4988333;28;20073;-50
2023/01/26 00:21:18;;;;;;;22.42;18.30;;;20.60;28.30;;;;;;5012476;28;20057;-49
2023/01/26 00:23:44;;;;;;;19.80;17.17;;;20.60;28.30;;;;;;5029989;28;20029;-51
2023/01/26 00:26:14;;;;;;;19.55;17.17;;;20.60;28.30;;;;;;5029792;28;20437;-50
2023/01/26 00:28:40;;;;;;;19.83;17.15;;;20.50;28.20;;;;;;5012765;28;20062;-47
2023/01/26 00:31:14;;;;;;;19.10;16.83;;;20.50;28.30;;;;;;5015501;28;20038;-46
2023/01/26 00:33:40;;;;;;;19.48;16.65;;;20.50;28.30;;;;;;5020663;28;20068;-51
2023/01/26 00:36:09;;;;;;;18.15;16.17;;;20.50;28.30;;;;;;5023467;28;20037;-51
2023/01/26 00:38:35;;;;;;;20.67;16.65;;;20.50;28.30;;;;;;5028255;28;20052;-51
2023/01/26 00:41:01;;;;;;;18.33;15.77;;;20.50;28.30;;;;;;5020085;28;20415;-44
2023/01/26 00:43:27;;;;;;;18.02;15.88;;;20.50;28.30;;;;;;5030090;28;20056;-51
2023/01/26 00:45:53;;;;;;;17.95;15.98;;;20.50;28.30;;;;;;5014011;28;20025;-47
2023/01/26 00:48:19;;;;;;;18.20;15.40;;;20.50;28.40;;;;;;5015530;28;20030;-48
2023/01/26 00:50:45;;;;;;;18.02;15.40;;;20.40;28.30;;;;;;5027058;28;20021;-49
2023/01/26 00:53:11;;;;;;;18.83;15.45;;;20.40;28.30;;;;;;5027666;28;20048;-50
2023/01/26 00:55:37;;;;;;;18.00;15.13;;;20.40;28.40;;;;;;5029372;28;20460;-51
2023/01/26 00:58:05;;;;;;;17.45;15.60;;;20.40;28.40;;;;;;5026200;28;20038;-51
2023/01/26 01:00:32;;;;;;;17.20;15.30;;;20.40;28.40;;;;;;5014157;28;20030;-47
2023/01/26 01:02:58;;;;;;;17.60;15.18;;;20.40;28.40;;;;;;5017583;28;20033;-51
2023/01/26 01:05:26;;;;;;;16.50;14.80;;;20.40;28.40;;;;;;5032704;28;20472;-47
2023/01/26 01:07:52;;;;;;;18.05;15.98;;;20.40;28.40;;;;;;5031636;28;20057;-51
2023/01/26 01:10:18;;;;;;;17.17;15.00;;;20.40;28.40;;;;;;5032742;28;20781;-51
2023/01/26 01:12:44;;;;;;;16.65;14.85;;;20.40;28.50;;;;;;5017306;28;20037;-47
2023/01/26 01:15:10;;;;;;;16.90;15.00;;;20.40;28.40;;;;;;5031327;28;20026;-47
2023/01/26 01:17:36;;;;;;;16.73;14.52;;;20.40;28.40;;;;;;5033184;28;20052;-50
2023/01/26 01:20:05;;;;;;;15.80;14.13;;;20.30;28.40;;;;;;5019749;28;20369;-51
2023/01/26 01:22:31;;;;;;;16.00;14.18;;;20.40;28.50;;;;;;5029920;28;20357;-51
2023/01/26 01:24:57;;;;;;;17.45;14.35;;;20.30;28.50;;;;;;5028685;28;20021;-50
2023/01/26 01:27:23;;;;;;;15.77;14.07;;;20.30;28.50;;;;;;5018756;28;20049;-48
2023/01/26 01:29:50;;;;;;;17.27;14.80;;;20.30;28.50;;;;;;5002668;28;20041;-48
2023/01/26 01:32:16;;;;;;;16.05;14.38;;;20.30;28.50;;;;;;5018856;28;20029;-48
2023/01/26 01:34:42;;;;;;;14.90;13.30;;;20.30;28.50;;;;;;5030285;28;20026;-49
2023/01/26 01:37:08;;;;;;;14.15;12.70;;;20.30;28.50;;;;;;5032286;28;20041;-49
2023/01/26 01:39:34;;;;;;;15.48;13.73;;;20.30;28.50;;;;;;5034470;28;20040;-52
2023/01/26 01:42:00;;;;;;;16.13;13.80;;;20.20;28.50;;;;;;5032657;28;20036;-51
2023/01/26 01:44:26;;;;;;;15.45;13.13;;;20.20;28.50;;;;;;5015092;28;20041;-50
2023/01/26 01:46:56;;;;;;;14.60;13.10;;;20.20;28.50;;;;;;5032094;28;20037;-49
2023/01/26 01:49:25;;;;;;;14.35;12.85;;;20.20;28.50;;;;;;5027475;28;20025;-47
2023/01/26 01:52:00;;;;;;;14.18;12.68;;;20.20;28.50;;;;;;5032843;28;20033;-50
2023/01/26 01:55:05;;;;;;;13.55;12.15;;;20.20;28.60;;;;;;5032195;28;20032;-50
2023/01/26 01:57:43;;;;;;;13.90;12.48;;;20.20;28.60;;;;;;5024293;28;20094;-49
2023/01/26 02:00:14;;;;;;;14.38;12.73;;;20.20;28.60;;;;;;5026249;28;20029;-48
2023/01/26 02:02:43;;;;;;;13.90;12.40;;;20.20;28.60;;;;;;5033452;28;20029;-49
2023/01/26 02:05:41;;;;;;;15.48;13.05;;;20.10;28.60;;;;;;5019298;28;20028;-48
2023/01/26 02:08:10;;;;;;;13.77;12.38;;;20.10;28.60;;;;;;4985656;28;20034;-51
2023/01/26 02:10:36;;;;;;;13.02;11.63;;;20.10;28.60;;;;;;5009630;28;20457;-45
2023/01/26 02:13:05;;;;;;;13.15;11.82;;;20.10;28.60;;;;;;5031813;28;20049;-50
2023/01/26 02:15:31;;;;;;;14.10;12.40;;;20.10;28.70;;;;;;5026350;28;20040;-50
2023/01/26 02:18:02;;;;;;;12.40;11.10;;;20.10;28.70;;;;;;5030160;28;20076;-50
2023/01/26 02:20:36;;;;;;;13.38;11.98;;;20.10;28.70;;;;;;5018060;28;20045;-50
2023/01/26 02:23:08;;;;;;;12.77;11.45;;;20.10;29.20;;;;;;5023075;28;20478;-49
2023/01/26 02:25:52;;;;;;;12.43;11.13;;;20.10;28.70;;;;;;5019164;28;20045;-48
2023/01/26 02:28:23;;;;;;;12.82;11.52;;;20.10;28.70;;;;;;5020979;28;20120;-48
2023/01/26 02:30:49;;;;;;;12.38;11.07;;;20.00;28.70;;;;;;5020030;28;20043;-49
2023/01/26 02:33:28;;;;;;;12.55;11.25;;;20.10;28.80;;;;;;5023255;28;20108;-50
2023/01/26 02:35:59;;;;;;;11.90;10.70;;;20.10;28.80;;;;;;5010980;28;20037;-52
2023/01/26 02:38:35;;;;;;;13.60;12.02;;;20.00;28.80;;;;;;5016289;28;20040;-52
2023/01/26 02:41:11;;;;;;;12.40;11.20;;;20.00;28.90;;;;;;5029919;28;20029;-50
2023/01/26 02:43:38;;;;;;;12.10;10.90;;;20.00;28.90;;;;;;5030063;28;20112;-50
2023/01/26 02:46:04;;;;;;;11.65;10.45;;;20.00;28.90;;;;;;5024019;28;20032;-51
2023/01/26 02:51:21;;;;;;;12.13;10.77;;;20.00;28.90;;;;;;5012240;28;20102;-49
2023/01/26 02:53:47;;;;;;;11.23;10.02;;;20.00;28.90;;;;;;5011566;28;20112;-48
2023/01/26 02:56:13;;;;;;;11.38;10.18;;;20.00;28.90;;;;;;5011892;28;20200;-50
2023/01/26 02:58:40;;;;;;;11.35;9.75;;;20.00;28.90;;;;;;5020991;28;20037;-46
2023/01/26 03:01:06;;;;;;;11.38;10.18;;;19.90;28.90;;;;;;5029486;28;20080;-47
2023/01/26 03:03:40;;;;;;;10.73;9.68;;;20.00;28.90;;;;;;5018155;28;20382;-48
2023/01/26 03:06:09;;;;;;;10.55;9.45;;;19.90;28.90;;;;;;5014936;28;20445;-46
2023/01/26 03:08:35;;;;;;;10.65;9.55;;;19.90;28.90;;;;;;5029874;28;20412;-50
2023/01/26 03:11:00;;;;;;;10.63;9.52;;;19.90;28.90;;;;;;5036716;28;20091;-47
2023/01/26 03:13:26;;;;;;;10.30;9.25;;;19.90;28.90;;;;;;5015898;28;20083;-49
2023/01/26 03:15:53;;;;;;;10.50;9.43;;;19.90;28.90;;;;;;5016160;28;20033;-51
2023/01/26 03:29:26;;;;;;;10.48;9.38;;;19.90;29.20;;;;;;5013936;28;19909;-50
2023/01/26 03:31:55;;;;;;;9.00;8.05;;;19.80;28.90;;;;;;5017167;28;20411;-51
2023/01/26 03:34:21;;;;;;;9.45;8.45;;;19.80;28.90;;;;;;5028169;28;20425;-51
2023/01/26 03:36:48;;;;;;;9.90;8.80;;;19.80;29.00;;;;;;5029031;28;20036;-47
2023/01/26 03:56:23;;;;;;;8.27;7.07;;;19.80;29.00;;;;;;5019122;28;20041;-50
2023/01/26 03:59:11;;;;;;;8.70;7.63;;;19.70;29.00;;;;;;5015216;28;20145;-46
2023/01/26 04:09:55;;;;;;;7.50;6.70;;;19.70;29.00;;;;;;5026818;28;20029;-49
2023/01/26 04:12:21;;;;;;;7.40;6.47;;;19.70;29.00;;;;;;5019890;28;20052;-50
2023/01/26 04:23:19;;;;;;;6.65;5.95;;;19.60;29.00;;;;;;5016960;28;20119;-51
2023/01/26 04:25:47;;;;;;;6.50;5.78;;;19.70;29.10;;;;;;5013354;28;20061;-49
2023/01/26 04:28:13;;;;;;;7.30;6.13;;;19.60;29.10;;;;;;5017220;28;20022;-48
2023/01/26 04:30:40;;;;;;;6.80;5.97;;;19.70;29.10;;;;;;5015431;28;20068;-47
2023/01/26 04:33:06;;;;;;;7.28;5.82;;;19.60;29.10;;;;;;5012281;28;20058;-46
2023/01/26 04:35:32;;;;;;;6.25;5.65;;;19.60;29.10;;;;;;5019650;28;20369;-50
2023/01/26 04:37:58;;;;;;;7.55;6.00;;;19.60;29.10;;;;;;5014292;28;20037;-48
2023/01/26 04:40:25;;;;;;;5.85;5.25;;;19.60;29.10;;;;;;5017037;28;20436;-46
2023/01/26 04:42:51;;;;;;;5.88;5.07;;;19.60;29.10;;;;;;5021587;28;20099;-47
2023/01/26 04:45:17;;;;;;;6.20;5.50;;;19.60;29.10;;;;;;5022196;28;20445;-48
2023/01/26 04:47:44;;;;;;;6.18;5.57;;;19.60;29.10;;;;;;5021094;28;20043;-46
2023/01/26 04:50:10;;;;;;;6.45;5.63;;;19.60;29.10;;;;;;5035446;28;20033;-50
2023/01/26 04:52:36;;;;;;;6.82;5.68;;;19.60;29.10;;;;;;5020796;28;20040;-48
2023/01/26 04:55:02;;;;;;;6.78;6.07;;;19.60;29.10;;;;;;5033099;28;20060;-46
2023/01/26 04:57:30;;;;;;;6.60;6.00;;;19.60;29.20;;;;;;5020603;28;20136;-48
2023/01/26 04:59:59;;;;;;;6.28;5.63;;;19.60;29.20;;;;;;5022520;28;20021;-49
2023/01/26 05:02:24;;;;;;;6.22;5.63;;;19.60;29.20;;;;;;5024328;28;20048;-49
2023/01/26 05:04:50;;;;;;;6.13;5.53;;;19.60;29.20;;;;;;5030224;28;20022;-45
2023/01/26 05:07:16;;;;;;;6.30;5.70;;;19.50;29.20;;;;;;5030481;28;20026;-46
2023/01/26 05:09:43;;;;;;;6.28;5.68;;;19.50;29.20;;;;;;5023736;28;20052;-50
2023/01/26 05:12:34;;;;;;;6.00;5.40;;;19.50;29.20;;;;;;5020113;28;20342;-49
2023/01/26 05:15:17;;;;;;;6.45;5.32;;;19.60;29.30;;;;;;5030406;28;20175;-49
2023/01/26 05:18:04;;;;;;;5.45;4.95;;;19.50;29.20;;;;;;5012307;28;20087;-50
2023/01/26 05:20:36;;;;;;;5.55;4.95;;;19.50;29.20;;;;;;5017581;28;20045;-46
2023/01/26 05:23:24;;;;;;;5.82;5.20;;;19.50;29.20;;;;;;5014130;28;20021;-50
2023/01/26 05:26:08;;;;;;;5.82;5.22;;;19.50;29.30;;;;;;5031276;28;20535;-49
2023/01/26 05:28:57;;;;;;;5.72;5.10;;;19.50;29.30;;;;;;5021789;28;20455;-46
2023/01/26 05:31:24;;;;;;;5.90;5.30;;;19.50;29.30;;;;;;5032583;28;20044;-49
2023/01/26 05:33:51;;;;;;;8.20;4.97;;;19.50;29.30;;;;;;5014544;28;20033;-44
2023/01/26 05:36:22;;;;;;;5.85;5.15;;;19.50;29.40;;;;;;5003013;28;20444;-50
2023/01/26 05:38:49;;;;;;;5.18;4.63;;;19.50;29.30;;;;;;5015626;28;20037;-47
2023/01/26 05:41:18;;;;;;;5.20;4.50;;;19.50;29.30;;;;;;5022732;28;20036;-48
2023/01/26 05:43:56;;;;;;;5.82;5.00;;;19.50;29.30;;;;;;5017415;28;20053;-47
2023/01/26 05:46:42;;;;;;;5.07;4.57;;;19.50;29.30;;;;;;5031609;28;20042;-48
2023/01/26 05:49:11;;;;;;;4.78;4.25;;;19.40;29.30;;;;;;5019914;28;20072;-50
2023/01/26 05:51:36;;;;;;;5.47;4.85;;;19.40;29.30;;;;;;5019430;28;20341;-50
2023/01/26 05:54:04;;;;;;;6.13;5.28;;;19.40;29.40;;;;;;5019473;28;21213;-48
2023/01/26 05:56:29;;;;;;;5.90;5.20;;;19.40;29.40;;;;;;5014322;28;20040;-46
2023/01/26 05:59:00;;;;;;;5.55;5.00;;;19.40;29.40;;;;;;5012807;28;20030;-47
2023/01/26 06:01:26;;;;;;;5.38;4.80;;;19.40;29.40;;;;;;5021321;28;20510;-46
2023/01/26 06:03:57;;;;;;;4.75;4.25;;;19.40;29.40;;;;;;5018751;28;20345;-46
2023/01/26 06:06:25;;;;;;;5.35;4.63;;;19.40;29.40;;;;;;5020418;28;20043;-49
2023/01/26 06:08:59;;;;;;;5.53;4.82;;;19.40;29.40;;;;;;5015464;28;20029;-50
2023/01/26 06:11:32;;;;;;;5.03;4.53;;;19.40;29.40;;;;;;5031606;28;20048;-49
2023/01/26 06:14:21;;;;;;;4.95;4.45;;;19.40;29.50;;;;;;4991463;28;20368;-50
2023/01/26 06:16:47;;;;;;;5.20;4.70;;;19.40;29.50;;;;;;5019773;28;20044;-49
2023/01/26 06:19:14;;;;;;;5.57;4.93;;;19.40;29.50;;;;;;5014267;28;20033;-51
2023/01/26 06:21:43;;;;;;;5.45;4.80;;;19.40;29.50;;;;;;5020492;28;20146;-49
2023/01/26 06:24:09;;;;;;;5.45;4.70;;;19.40;29.50;;;;;;5016253;28;20071;-46
2023/01/26 06:26:35;;;;;;;5.03;4.53;;;19.40;29.50;;;;;;5012942;28;20507;-49
2023/01/26 06:29:01;;;;;;;4.97;4.25;;;19.30;29.50;;;;;;5016415;28;20025;-48
2023/01/26 06:31:30;;;;;;;4.88;4.18;;;19.30;29.60;;;;;;5020032;28;20061;-50
2023/01/26 06:33:58;;;;;;;5.05;4.55;;;19.30;29.60;;;;;;5018309;28;20034;-50
2023/01/26 06:36:25;;;;;;;4.70;4.18;;;19.30;29.60;;;;;;5011505;28;20025;-49
2023/01/26 06:38:54;;;;;;;5.55;4.75;;;19.30;29.60;;;;;;5015744;28;20556;-46
2023/01/26 06:41:19;;;;;;;4.90;4.40;;;19.30;29.60;;;;;;5017101;28;20037;-50
2023/01/26 06:43:47;;;;;;;5.07;4.57;;;19.30;29.60;;;;;;5014350;28;20029;-48
2023/01/26 06:46:14;;;;;;;4.90;4.22;;;19.30;29.60;;;;;;5014399;28;20026;-50
2023/01/26 06:48:41;;;;;;;5.30;4.70;;;19.30;29.60;;;;;;5003441;28;20397;-52
2023/01/26 06:51:36;;;;;;;4.82;4.32;;;19.30;29.60;;;;;;5005455;28;20040;-47
2023/01/26 06:54:02;;;;;;;;;;;19.30;29.70;;;;;;5024249;28;20022;-49
2023/01/26 06:56:36;;;;;;;4.95;4.15;;;19.30;29.70;;;;;;5008619;28;20256;-45
2023/01/26 06:59:30;;;;;;;4.90;4.38;;;19.30;29.70;;;;;;5011614;28;20045;-50
2023/01/26 07:02:31;;;;;;;5.10;4.30;;;19.30;29.70;;;;;;4951875;28;20045;-51
2023/01/26 07:04:57;;;;;;;5.25;4.63;;;19.20;29.70;;;;;;5010930;28;20038;-49
2023/01/26 07:07:23;;;;;;;5.47;4.53;;;19.20;29.70;;;;;;5023733;28;20433;-49
2023/01/26 07:09:48;;;;;;;5.32;4.22;;;19.20;29.80;;;;;;5024240;28;20040;-48
2023/01/26 07:12:14;;;;;;;6.90;4.35;;;19.20;29.80;;;;;;5020789;28;20050;-52
2023/01/26 07:14:40;;;;;;;5.35;4.40;;;19.20;29.80;;;;;;5016394;28;20100;-50
2023/01/26 07:17:06;;;;;;;4.97;4.47;;;19.20;29.80;;;;;;5021790;28;20084;-48
2023/01/26 07:19:32;;;;;;;5.10;4.55;;;19.20;29.90;;;;;;5023689;28;20022;-51
2023/01/26 07:21:59;;;;;;;5.13;4.15;;;19.20;29.90;;;;;;5023033;28;20064;-46
2023/01/26 07:24:25;;;;;;;4.68;4.10;;;19.20;29.90;;;;;;5023741;28;20057;-47
2023/01/26 07:26:51;;;;;;;5.43;4.60;;;19.20;29.90;;;;;;5024128;28;20060;-47
2023/01/26 07:29:16;;;;;;;5.28;4.68;;;19.20;30.40;;;;;;5026757;28;20548;-46
2023/01/26 07:31:43;;;;;;;4.88;4.38;;;19.20;29.90;;;;;;5019485;28;20112;-46
2023/01/26 07:34:09;;;;;;;4.78;4.28;;;19.20;29.90;;;;;;5024096;28;20425;-48
2023/01/26 07:36:35;;;;;;;4.30;3.50;;;19.20;29.90;;;;;;5018708;28;20437;-48
2023/01/26 07:39:01;;;;;;;5.57;4.00;;;19.20;29.90;;;;;;5017715;28;20048;-47
2023/01/26 07:41:27;;;;;;;4.65;4.10;;;19.10;29.90;;;;;;5025683;28;20109;-52
2023/01/26 07:43:53;;;;;;;4.25;3.50;;;19.20;30.00;;;;;;5022734;28;20053;-47
2023/01/26 07:46:19;;;;;;;4.65;3.95;;;19.10;30.00;;;;;;5034021;28;20441;-46
2023/01/26 07:48:44;;;;;;;5.35;4.22;;;19.20;30.00;;;;;;5033956;28;20065;-48
2023/01/26 07:51:10;;;;;;;4.20;3.70;;;19.20;30.00;;;;;;5032614;28;20025;-47
2023/01/26 07:53:38;;;;;;;4.70;4.25;;;19.20;30.00;;;;;;5032403;28;20112;-51
2023/01/26 07:56:09;;;;;;;5.10;4.25;;;19.10;30.00;;;;;;5032849;28;20049;-52
2023/01/26 07:58:35;;;;;;;5.90;3.70;;;19.10;30.00;;;;;;5032546;28;20045;-50
2023/01/26 08:01:12;;;;;;;4.38;3.65;;;19.20;30.00;;;;;;5032827;28;20496;-49
2023/01/26 08:03:40;;;;;;;4.22;3.20;;;19.20;30.00;;;;;;5031732;28;20060;-46
2023/01/26 08:06:07;;;;;;;4.53;3.45;;;19.20;30.10;;;;;;5033072;28;20033;-47
2023/01/26 08:08:33;;;;;;;3.90;3.20;;;19.20;30.10;;;;;;5033260;28;20045;-47
2023/01/26 08:11:00;;;;;;;4.47;3.65;;;19.20;30.10;;;;;;5032896;28;20060;-49
2023/01/26 08:13:27;;;;;;;4.03;3.50;;;19.30;30.20;;;;;;5034594;28;20026;-44
2023/01/26 08:15:53;;;;;;;4.13;3.00;;;19.30;30.20;;;;;;5037372;28;20087;-45
2023/01/26 08:18:19;;;;;;;3.83;3.42;;;19.40;30.20;;;;;;5035568;28;20042;-47
2023/01/26 08:20:54;;;;;;;4.95;3.35;;;19.40;30.20;;;;;;5034765;28;20065;-47
2023/01/26 08:23:20;;;;;;;4.22;3.33;;;19.50;30.20;;;;;;5033368;28;20029;-47
2023/01/26 08:25:48;;;;;;;4.50;3.05;;;19.60;30.20;;;;;;5048726;28;20034;-49
2023/01/26 08:28:14;;;;;;;4.32;3.40;;;19.60;30.10;;;;;;5046260;28;20021;-51
2023/01/26 08:30:40;;;;;;;3.85;3.22;;;19.70;30.10;;;;;;5047180;28;20044;-50
2023/01/26 08:33:06;;;;;;;3.97;3.42;;;19.70;30.10;;;;;;5047161;28;20022;-49
2023/01/26 08:35:32;;;;;;;4.43;3.47;;;19.80;30.10;;;;;;5046801;28;20022;-49
2023/01/26 08:37:58;;;;;;;4.35;3.63;;;19.90;30.00;;;;;;5042967;28;20496;-51
2023/01/26 08:40:27;;;;;;;4.35;3.53;;;19.90;30.00;;;;;;5036658;28;20033;-47
2023/01/26 08:42:53;;;;;;;3.50;3.05;;;20.00;30.00;;;;;;5036537;28;20052;-49
2023/01/26 08:45:19;;;;;;;5.85;4.40;;;20.10;30.00;;;;;;5037026;28;20037;-47
2023/01/26 08:47:49;;;;;;;3.63;3.10;;;20.10;29.90;;;;;;5035830;28;20038;-48
2023/01/26 08:50:15;;;;;;;4.78;3.28;;;20.20;30.00;;;;;;5035233;28;20121;-52
2023/01/26 08:52:41;;;;;;;4.25;3.35;;;20.30;30.00;;;;;;5036492;28;20034;-48
2023/01/26 08:55:07;;;;;;;5.25;3.47;;;20.30;29.90;;;;;;5035876;28;20398;-50
2023/01/26 08:57:33;;;;;;;4.20;3.30;;;20.40;30.00;;;;;;5036505;28;20508;-49
2023/01/26 08:59:59;;;;;;;4.38;3.20;;;20.50;30.00;;;;;;5034288;28;20113;-49
2023/01/26 09:02:25;;;;;;;4.95;3.55;;;20.50;29.90;;;;;;5035845;28;20026;-51
2023/01/26 09:04:51;;;;;;;6.30;3.67;;;20.50;29.90;;;;;;5036407;28;20025;-49
2023/01/26 09:07:17;;;;;;;4.65;3.33;;;20.60;30.40;;;;;;5034519;28;20037;-48
2023/01/26 09:09:43;;;;;;;5.80;3.60;;;20.60;29.90;;;;;;5036104;28;20371;-48
2023/01/26 09:12:09;;;;;;;5.68;3.83;;;20.70;29.90;;;;;;5023827;28;20034;-46
2023/01/26 09:14:35;;;;;;;5.72;4.20;;;20.70;29.90;;;;;;5035335;28;20041;-50
2023/01/26 09:17:01;;;;;;;5.32;3.90;;;20.80;29.90;;;;;;5035668;28;20025;-49
2023/01/26 09:19:27;;;;;;;5.20;3.65;;;20.80;29.80;;;;;;5035275;28;20353;-52
2023/01/26 09:21:54;;;;;;;5.00;3.85;;;20.90;29.80;;;;;;5036064;28;20353;-47
2023/01/26 09:24:20;;;;;;;5.35;4.10;;;21.00;29.80;;;;;;5035038;28;20025;-50
2023/01/26 09:26:46;;;;;;;6.65;4.32;;;21.00;29.80;;;;;;5035178;28;20037;-49
2023/01/26 09:29:12;;;;;;;5.57;4.15;;;21.00;29.70;;;;;;5034954;28;20087;-50
2023/01/26 09:31:39;;;;;;;5.32;4.03;;;21.00;29.70;;;;;;5035874;28;20108;-51
2023/01/26 09:34:05;;;;;;;6.28;4.47;;;21.10;29.70;;;;;;5035676;28;20140;-49
2023/01/26 09:36:32;;;;;;;5.68;4.32;;;21.10;29.60;;;;;;5035595;28;20037;-49
2023/01/26 09:38:58;;;;;;;5.13;3.97;;;21.10;29.60;;;;;;5032295;28;20057;-52
2023/01/26 09:41:50;;;;;;;6.43;4.55;;;21.20;30.00;;;;;;5034991;28;20021;-49
2023/01/26 09:44:22;;;;;;;5.85;4.65;;;21.20;29.60;;;;;;5035441;28;20087;-46
2023/01/26 09:47:00;;;;;;;5.15;4.22;;;21.20;29.50;;;;;;5033829;28;20026;-50
2023/01/26 09:49:53;;;;;;;5.72;4.57;;;21.20;29.50;;;;;;5034669;28;20034;-45
2023/01/26 09:52:28;;;;;;;6.18;4.60;;;21.20;29.50;;;;;;5035109;28;20620;-52
2023/01/26 09:54:58;;;;;;;6.07;4.60;;;21.30;29.50;;;;;;5035207;28;20029;-52
2023/01/26 09:57:39;;;;;;;5.40;4.57;;;21.30;29.50;;;;;;5034895;28;20037;-54
2023/01/26 10:00:16;;;;;;;5.38;4.43;;;21.30;29.50;;;;;;5034231;28;20091;-49
2023/01/26 10:03:04;;;;;;;5.40;4.40;;;21.30;29.50;;;;;;5034900;28;20037;-48
2023/01/26 10:05:44;;;;;;;5.85;3.90;;;21.30;29.50;;;;;;5035105;28;20155;-52
2023/01/26 10:08:12;;;;;;;5.30;4.40;;;21.30;29.50;;;;;;5034136;28;20721;-51
2023/01/26 10:10:43;;;;;;;5.68;4.22;;;21.30;29.50;;;;;;5033189;28;20056;-49
2023/01/26 10:13:13;;;;;;;7.30;4.50;;;21.30;29.60;;;;;;5034883;28;20026;-48
2023/01/26 10:15:42;;;;;;;4.97;3.92;;;21.30;29.60;;;;;;5034293;28;20032;-50
2023/01/26 10:18:32;;;;;;;6.10;4.70;;;21.30;29.60;;;;;;5033296;28;20069;-51
2023/01/26 10:21:01;;;;;;;5.72;4.13;;;21.30;29.60;;;;;;5032088;28;20049;-49
2023/01/26 10:23:34;;;;;;;5.88;4.55;;;21.30;29.70;;;;;;5032820;28;20029;-47
2023/01/26 10:26:15;;;;;;;5.57;3.95;;;21.30;29.80;;;;;;5034483;28;20041;-47
2023/01/26 10:28:43;;;;;;;6.07;4.32;;;21.30;29.80;;;;;;5033735;28;20041;-51
2023/01/26 10:31:18;;;;;;;5.35;4.03;;;21.20;29.80;;;;;;5025907;28;20468;-46
2023/01/26 10:33:56;;;;;;;5.55;3.67;;;21.20;29.90;;;;;;5033233;28;20048;-49
2023/01/26 10:36:23;;;;;;;5.72;4.03;;;21.20;29.90;;;;;;5033763;28;20040;-48
2023/01/26 10:38:49;;;;;;;5.78;3.72;;;21.20;29.90;;;;;;5033936;28;20033;-49
2023/01/26 10:41:25;;;;;;;4.95;3.20;;;21.20;30.00;;;;;;5033820;28;20453;-46
2023/01/26 10:43:57;;;;;;;6.22;4.10;;;21.20;30.00;;;;;;5033323;28;20044;-48
2023/01/26 10:46:27;;;;;;;4.70;3.50;;;21.20;30.00;;;;;;5033114;28;20100;-48
2023/01/26 10:49:08;;;;;;;4.93;3.63;;;21.20;30.00;;;;;;5034047;28;20037;-47
2023/01/26 10:51:37;;;;;;;4.72;3.60;;;21.20;30.10;;;;;;5033154;28;20044;-47
2023/01/26 10:54:26;;;;;;;5.38;3.63;;;21.20;30.20;;;;;;5033976;28;20057;-46
2023/01/26 10:57:02;;;;;;;6.28;3.28;;;21.20;30.20;;;;;;5022479;28;20460;-47
2023/01/26 10:59:38;;;;;;;4.80;3.53;;;21.20;30.30;;;;;;5031753;28;20025;-46
2023/01/26 11:02:10;;;;;;;4.53;2.78;;;21.20;30.40;;;;;;5032929;28;20041;-46
2023/01/26 11:04:40;;;;;;;4.95;3.00;;;21.10;30.40;;;;;;5032406;28;20029;-52
2023/01/26 11:07:30;;;;;;;5.75;3.85;;;21.10;30.60;;;;;;5033053;28;20037;-48
2023/01/26 11:10:16;;;;;;;4.22;2.97;;;21.20;30.70;;;;;;5032512;28;20029;-46
2023/01/26 11:12:42;;;;;;;4.82;3.03;;;21.20;30.80;;;;;;5032426;28;20033;-52
2023/01/26 11:15:20;;;;;;;5.28;3.13;;;21.10;30.80;;;;;;5033196;28;20040;-49
2023/01/26 11:18:00;;;;;;;4.88;3.08;;;21.10;31.00;;;;;;5032804;28;20049;-51
2023/01/26 11:20:44;;;;;;;4.13;2.88;;;21.10;31.20;;;;;;5037362;28;20143;-52
2023/01/26 11:23:46;;;;;;;4.57;2.92;;;21.10;31.40;;;;;;5035729;28;20041;-51
2023/01/26 11:27:04;;;;;;;3.83;2.60;;;21.10;31.50;;;;;;5022585;28;20095;-47
2023/01/26 11:30:08;;;;;;;4.10;2.53;;;21.10;31.60;;;;;;4993705;28;20048;-50
2023/01/26 11:32:56;;;;;;;4.63;2.70;;;21.20;31.80;;;;;;5034923;28;20045;-48
2023/01/26 11:35:32;;;;;;;3.92;2.67;;;21.10;31.90;;;;;;5035304;28;20037;-46
2023/01/26 11:38:08;;;;;;;3.58;2.90;;;21.20;32.10;;;;;;5033388;28;20041;-48
2023/01/26 11:40:39;;;;;;;4.45;2.85;;;21.20;32.20;;;;;;5033082;28;20079;-58
2023/01/26 11:43:24;;;;;;;3.33;2.38;;;21.20;32.20;;;;;;5034423;28;20365;-51
2023/01/26 11:46:25;;;;;;;4.70;2.40;;;21.20;32.30;;;;;;5032048;28;20083;-46
2023/01/26 11:49:27;;;;;;;6.28;3.10;;;21.20;32.40;;;;;;5031861;28;20068;-50
2023/01/26 11:52:31;;;;;;;4.82;2.58;;;21.20;32.50;;;;;;5019205;28;20029;-47
2023/01/26 11:55:27;;;;;;;3.60;2.70;;;21.10;32.50;;;;;;4957275;28;20034;-47
2023/01/26 11:58:29;;;;;;;4.50;2.50;;;21.20;32.50;;;;;;4938860;28;20130;-49
2023/01/26 12:01:12;;;;;;;4.88;2.72;;;21.20;32.50;;;;;;5012745;28;20065;-48
2023/01/26 12:03:50;;;;;;;5.10;2.50;;;21.20;32.50;;;;;;5010382;28;20021;-47
2023/01/26 12:06:23;;;;;;;4.93;2.75;;;21.10;32.50;;;;;;5034006;28;20026;-50
2023/01/26 12:08:53;;;;;;;5.05;2.30;;;21.20;32.60;;;;;;5029245;28;20029;-52
2023/01/26 12:11:57;;;;;;;5.63;2.40;;;21.20;32.60;;;;;;5034473;28;20456;-51
2023/01/26 12:14:29;;;;;;;5.38;2.72;;;21.20;32.60;;;;;;4999713;28;20134;-52
2023/01/26 12:17:07;;;;;;;4.35;2.63;;;21.20;32.60;;;;;;5032175;28;20528;-52
2023/01/26 12:19:49;;;;;;;4.30;2.20;;;21.10;32.60;;;;;;5016507;28;20428;-52
2023/01/26 12:22:27;;;;;;;5.80;2.58;;;21.10;32.60;;;;;;5032829;28;20053;-53
2023/01/26 12:25:27;;;;;;;4.97;2.58;;;21.10;32.70;;;;;;5025911;28;20121;-51
2023/01/26 12:28:26;;;;;;;4.13;2.40;;;21.10;32.70;;;;;;5033253;28;20339;-50
2023/01/26 12:31:21;;;;;;;4.05;2.03;;;21.10;32.80;;;;;;5024139;28;20049;-45
2023/01/26 12:33:52;;;;;;;4.20;2.35;;;21.10;32.90;;;;;;5003996;28;20120;-52
2023/01/26 12:36:33;;;;;;;5.22;2.65;;;21.10;32.90;;;;;;4997424;28;20114;-49
2023/01/26 12:39:06;;;;;;;5.47;2.38;;;21.10;32.90;;;;;;5031170;28;20481;-49
2023/01/26 12:41:56;;;;;;;6.35;2.13;;;21.10;32.90;;;;;;5016307;28;20066;-51
2023/01/26 12:44:39;;;;;;;6.00;2.25;;;21.10;33.00;;;;;;5027955;28;20027;-47
2023/01/26 12:47:14;;;;;;;7.70;2.47;;;21.10;33.00;;;;;;5018280;28;20048;-47
2023/01/26 12:50:04;;;;;;;4.97;2.25;;;21.10;33.00;;;;;;5025358;28;20030;-52
2023/01/26 12:52:35;;;;;;;5.07;1.92;;;21.10;33.00;;;;;;5014155;28;20062;-46
2023/01/26 12:55:09;;;;;;;4.85;1.95;;;21.10;33.00;;;;;;5019119;28;20091;-45
2023/01/26 12:57:46;;;;;;;7.45;2.42;;;21.10;33.10;;;;;;5034028;28;20488;-50
2023/01/26 13:00:23;;;;;;;6.63;1.95;;;21.10;33.10;;;;;;5034522;28;20061;-47
2023/01/26 13:02:55;;;;;;;6.45;2.33;;;21.10;33.10;;;;;;5018379;28;20034;-51
2023/01/26 13:05:29;;;;;;;5.20;1.80;;;21.10;33.10;;;;;;5028848;28;20021;-50
2023/01/26 13:07:56;;;;;;;4.97;1.70;;;21.10;33.10;;;;;;5030186;28;20030;-50
2023/01/26 13:10:24;;;;;;;5.50;2.03;;;21.10;33.10;;;;;;5036934;28;20080;-49
2023/01/26 13:13:20;;;;;;;5.28;1.90;;;21.10;33.10;;;;;;5023038;28;20058;-50
2023/01/26 13:16:06;;;;;;;7.82;2.10;;;21.10;33.10;;;;;;5017311;28;20480;-50
2023/01/26 13:18:51;;;;;;;6.57;2.40;;;21.10;33.20;;;;;;5031486;28;20045;-49
2023/01/26 13:21:27;;;;;;;5.88;2.38;;;21.10;33.30;;;;;;5037509;28;20048;-50
2023/01/26 13:23:54;;;;;;;7.63;2.55;;;21.10;33.50;;;;;;5037897;28;20024;-51
2023/01/26 13:26:46;;;;;;;5.32;2.17;;;21.10;33.70;;;;;;5035332;28;20135;-47
2023/01/26 13:29:52;;;;;;;4.82;1.95;;;21.10;33.80;;;;;;5031115;28;20021;-48
2023/01/26 13:32:21;;;;;;;5.75;2.30;;;21.00;33.90;;;;;;5029160;28;20029;-46
2023/01/26 13:35:00;;;;;;;4.75;2.13;;;21.10;33.90;;;;;;5033709;28;20026;-45
2023/01/26 13:37:49;;;;;;;5.07;2.20;;;21.10;33.90;;;;;;5020642;28;20034;-45
2023/01/26 13:40:25;;;;;;;5.88;2.10;;;21.00;33.90;;;;;;5017627;28;20034;-53
2023/01/26 13:43:15;;;;;;;5.72;2.10;;;21.10;33.90;;;;;;5035647;28;20025;-51
2023/01/26 13:46:02;;;;;;;6.45;2.08;;;21.10;34.10;;;;;;5023235;28;20034;-53
2023/01/26 13:48:43;;;;;;;4.47;1.83;;;21.10;34.50;;;;;;5017298;28;20026;-48
2023/01/26 13:51:21;;;;;;;4.40;1.98;;;21.10;34.60;;;;;;5017438;28;20457;-55
2023/01/26 13:54:07;;;;;;;3.58;1.75;;;21.10;34.60;;;;;;5023937;28;20499;-52
2023/01/26 13:56:41;;;;;;;4.93;1.63;;;21.20;34.60;;;;;;5033756;28;20473;-50
2023/01/26 13:59:18;;;;;;;8.00;1.88;;;21.30;34.60;;;;;;5036797;28;20041;-54